createdAt,value
2019-02-14T00:00:13.625Z,6.12
2019-02-14T00:02:42.191Z,6.10
2019-02-14T00:05:16.434Z,6.09
2019-02-14T00:07:41.066Z,6.08
2019-02-14T00:10:10.239Z,6.06
2019-02-14T00:12:38.684Z,6.05
2019-02-14T00:15:14.185Z,6.04
2019-02-14T00:17:42.633Z,6.04
2019-02-14T00:20:11.233Z,6.03
2019-02-14T00:22:39.763Z,6.04
2019-02-14T00:25:08.417Z,6.04
2019-02-14T00:27:36.935Z,6.00
2019-02-14T00:30:07.511Z,5.96
2019-02-14T00:32:35.973Z,5.97
2019-02-14T00:35:05.425Z,5.93
2019-02-14T00:37:35.497Z,5.94
2019-02-14T00:40:06.020Z,5.95
2019-02-14T00:42:34.445Z,5.94
2019-02-14T00:45:02.968Z,5.95
2019-02-14T00:47:31.610Z,5.95
2019-02-14T00:50:00.178Z,5.93
2019-02-14T00:52:28.755Z,5.93
2019-02-14T00:54:57.207Z,5.91
2019-02-14T00:57:25.631Z,5.89
2019-02-14T00:59:54.106Z,5.87
2019-02-14T01:02:22.683Z,5.84
2019-02-14T01:04:51.275Z,5.81
2019-02-14T01:07:19.736Z,5.77
2019-02-14T01:09:48.171Z,5.77
2019-02-14T01:12:16.843Z,5.76
2019-02-14T01:14:45.395Z,5.74
2019-02-14T01:17:14.023Z,5.72
2019-02-14T01:19:42.451Z,5.71
2019-02-14T01:22:11.003Z,5.69
2019-02-14T01:24:39.491Z,5.68
2019-02-14T01:27:07.957Z,5.67
2019-02-14T01:29:36.424Z,5.66
2019-02-14T01:32:04.923Z,5.65
2019-02-14T01:34:33.403Z,5.60
2019-02-14T01:37:01.841Z,5.56
2019-02-14T01:39:31.933Z,5.52
2019-02-14T01:42:00.401Z,5.48
2019-02-14T01:44:28.954Z,5.46
2019-02-14T01:46:57.588Z,5.40
2019-02-14T01:49:26.379Z,5.36
2019-02-14T01:51:54.905Z,5.32
2019-02-14T01:54:23.330Z,5.27
2019-02-14T01:56:51.774Z,5.25
2019-02-14T01:59:20.193Z,5.24
2019-02-14T02:01:48.814Z,5.23
2019-02-14T02:04:17.309Z,5.20
2019-02-14T02:06:45.779Z,5.19
2019-02-14T02:09:14.265Z,5.17
2019-02-14T02:11:42.787Z,5.16
2019-02-14T02:14:11.825Z,5.15
2019-02-14T02:16:40.449Z,5.12
2019-02-14T02:19:08.956Z,5.11
2019-02-14T02:21:37.444Z,5.11
2019-02-14T02:24:06.124Z,5.07
2019-02-14T02:26:34.670Z,5.08
2019-02-14T02:29:03.198Z,5.08
2019-02-14T02:31:31.675Z,5.05
2019-02-14T02:34:00.129Z,5.01
2019-02-14T02:36:28.807Z,5.01
2019-02-14T02:38:57.238Z,5.00
2019-02-14T02:41:25.681Z,4.96
2019-02-14T02:43:54.144Z,4.95
2019-02-14T02:46:23.069Z,4.94
2019-02-14T02:48:51.518Z,4.94
2019-02-14T02:51:20.195Z,4.91
2019-02-14T02:53:48.650Z,4.92
2019-02-14T02:56:17.175Z,4.89
2019-02-14T02:58:45.613Z,4.87
2019-02-14T03:01:14.043Z,4.81
2019-02-14T03:03:42.664Z,4.80
2019-02-14T03:06:11.157Z,4.79
2019-02-14T03:08:39.650Z,4.79
2019-02-14T03:11:08.056Z,4.76
2019-02-14T03:13:36.513Z,4.72
2019-02-14T03:16:05.038Z,4.72
2019-02-14T03:18:33.752Z,4.70
2019-02-14T03:21:02.169Z,4.68
2019-02-14T03:23:30.789Z,4.66
2019-02-14T03:25:59.268Z,4.63
2019-02-14T03:28:27.702Z,4.63
2019-02-14T03:30:56.155Z,4.61
2019-02-14T03:33:24.575Z,4.61
2019-02-14T03:35:53.117Z,4.60
2019-02-14T03:38:21.545Z,4.57
2019-02-14T03:40:50.003Z,4.55
2019-02-14T03:43:18.563Z,4.52
2019-02-14T03:45:47.079Z,4.50
2019-02-14T03:48:15.669Z,4.50
2019-02-14T03:50:44.114Z,4.49
2019-02-14T03:53:12.674Z,4.49
2019-02-14T03:55:41.197Z,4.46
2019-02-14T03:58:09.678Z,4.43
2019-02-14T04:00:38.166Z,4.43
2019-02-14T04:03:06.752Z,4.41
2019-02-14T04:05:35.219Z,4.39
2019-02-14T04:08:03.649Z,4.37
2019-02-14T04:10:32.258Z,4.36
2019-02-14T04:13:00.708Z,4.36
2019-02-14T04:15:29.184Z,4.35
2019-02-14T04:17:57.593Z,4.37
2019-02-14T04:20:26.047Z,4.37
2019-02-14T04:22:55.778Z,4.36
2019-02-14T04:25:24.414Z,4.35
2019-02-14T04:27:52.915Z,4.35
2019-02-14T04:30:21.351Z,4.34
2019-02-14T04:32:49.949Z,4.35
2019-02-14T04:35:18.436Z,4.33
2019-02-14T04:37:46.938Z,4.29
2019-02-14T04:40:15.351Z,4.30
2019-02-14T04:42:43.818Z,4.28
2019-02-14T04:45:13.196Z,4.27
2019-02-14T04:47:41.959Z,4.27
2019-02-14T04:50:11.564Z,4.26
2019-02-14T04:52:40.623Z,4.24
2019-02-14T04:55:10.485Z,4.21
2019-02-14T04:57:38.936Z,4.19
2019-02-14T05:00:10.458Z,4.18
2019-02-14T05:02:38.983Z,4.16
2019-02-14T05:05:08.642Z,4.12
2019-02-14T05:07:37.087Z,4.11
2019-02-14T05:10:10.348Z,4.06
2019-02-14T05:12:38.822Z,4.06
2019-02-14T05:15:09.208Z,4.04
2019-02-14T05:17:37.678Z,4.03
2019-02-14T05:20:13.234Z,4.00
2019-02-14T05:22:41.671Z,3.98
2019-02-14T05:25:10.760Z,3.92
2019-02-14T05:27:39.186Z,3.90
2019-02-14T05:30:10.778Z,3.89
2019-02-14T05:32:39.221Z,3.87
2019-02-14T05:35:08.614Z,3.86
2019-02-14T05:37:37.326Z,3.85
2019-02-14T05:40:08.671Z,3.84
2019-02-14T05:42:37.122Z,3.80
2019-02-14T05:45:11.235Z,3.80
2019-02-14T05:47:39.740Z,3.76
2019-02-14T05:50:10.642Z,3.75
2019-02-14T05:52:39.418Z,3.74
2019-02-14T05:55:10.779Z,3.72
2019-02-14T05:57:39.338Z,3.70
2019-02-14T06:00:16.711Z,3.65
2019-02-14T06:02:45.199Z,3.64
2019-02-14T06:05:13.751Z,3.63
2019-02-14T06:07:42.551Z,3.62
2019-02-14T06:10:11.642Z,3.62
2019-02-14T06:12:40.124Z,3.63
2019-02-14T06:15:12.526Z,3.62
2019-02-14T06:17:40.952Z,3.62
2019-02-14T06:20:10.864Z,3.62
2019-02-14T06:22:39.415Z,3.61
2019-02-14T06:25:10.185Z,3.61
2019-02-14T06:27:43.392Z,3.57
2019-02-14T06:30:16.520Z,3.56
2019-02-14T06:32:45.026Z,3.57
2019-02-14T06:35:13.494Z,3.54
2019-02-14T06:37:41.972Z,3.55
2019-02-14T06:40:14.028Z,3.52
2019-02-14T06:42:42.724Z,3.52
2019-02-14T06:45:13.385Z,3.51
2019-02-14T06:47:41.828Z,3.49
2019-02-14T06:50:10.545Z,3.48
2019-02-14T06:52:40.404Z,3.48
2019-02-14T06:55:09.316Z,3.47
2019-02-14T06:57:37.831Z,3.46
2019-02-14T07:00:12.448Z,3.47
2019-02-14T07:02:41.080Z,3.47
2019-02-14T07:05:10.560Z,3.49
2019-02-14T07:07:39.394Z,3.51
2019-02-14T07:10:10.133Z,3.54
2019-02-14T07:12:38.568Z,3.55
2019-02-14T07:15:10.035Z,3.56
2019-02-14T07:17:38.564Z,3.56
2019-02-14T07:20:10.040Z,3.56
2019-02-14T07:22:38.597Z,3.54
2019-02-14T07:25:09.455Z,3.54
2019-02-14T07:27:38.139Z,3.54
2019-02-14T07:30:15.182Z,3.57
2019-02-14T07:32:43.668Z,3.57
2019-02-14T07:35:12.170Z,3.57
2019-02-14T07:37:40.613Z,3.58
2019-02-14T07:40:12.074Z,3.58
2019-02-14T07:42:40.582Z,3.59
2019-02-14T07:45:11.793Z,3.62
2019-02-14T07:47:40.276Z,3.64
2019-02-14T07:50:10.978Z,3.65
2019-02-14T07:52:39.496Z,3.69
2019-02-14T07:55:15.526Z,3.69
2019-02-14T07:57:44.103Z,3.70
2019-02-14T08:00:19.490Z,3.70
2019-02-14T08:02:47.906Z,3.71
2019-02-14T08:05:16.589Z,3.73
2019-02-14T08:07:45.013Z,3.76
2019-02-14T08:10:17.518Z,3.81
2019-02-14T08:12:46.945Z,3.86
2019-02-14T08:15:15.646Z,3.91
2019-02-14T08:17:46.908Z,3.96
2019-02-14T08:20:17.971Z,3.98
2019-02-14T08:22:46.414Z,4.01
2019-02-14T08:25:14.852Z,4.04
2019-02-14T08:27:43.253Z,4.08
2019-02-14T08:30:16.720Z,4.11
2019-02-14T08:32:45.349Z,4.14
2019-02-14T08:35:13.872Z,4.16
2019-02-14T08:37:45.547Z,4.23
2019-02-14T08:40:15.650Z,4.27
2019-02-14T08:42:47.213Z,4.33
2019-02-14T08:45:15.763Z,4.37
2019-02-14T08:47:44.249Z,4.43
2019-02-14T08:50:12.845Z,4.48
2019-02-14T08:52:41.327Z,4.53
2019-02-14T08:55:10.402Z,4.60
2019-02-14T08:57:38.821Z,4.62
2019-02-14T09:00:10.493Z,4.67
2019-02-14T09:02:38.988Z,4.71
2019-02-14T09:05:08.171Z,4.76
2019-02-14T09:07:36.673Z,4.80
2019-02-14T09:10:10.914Z,4.86
2019-02-14T09:12:39.425Z,4.93
2019-02-14T09:15:10.519Z,5.00
2019-02-14T09:17:38.970Z,5.10
2019-02-14T09:20:21.577Z,5.18
2019-02-14T09:22:50.173Z,5.28
2019-02-14T09:25:18.629Z,5.36
2019-02-14T09:27:47.036Z,5.44
2019-02-14T09:30:15.767Z,5.57
2019-02-14T09:32:44.381Z,5.67
2019-02-14T09:35:12.940Z,5.79
2019-02-14T09:37:41.384Z,5.90
2019-02-14T09:40:12.560Z,6.01
2019-02-14T09:42:41.035Z,6.13
2019-02-14T09:45:13.881Z,6.26
2019-02-14T09:47:42.422Z,6.39
2019-02-14T09:50:12.468Z,6.54
2019-02-14T09:52:41.527Z,6.67
2019-02-14T09:55:11.618Z,6.82
2019-02-14T09:57:40.141Z,7.00
2019-02-14T10:00:14.289Z,7.16
2019-02-14T10:02:42.775Z,7.30
2019-02-14T10:05:11.528Z,7.47
2019-02-14T10:07:39.986Z,7.57
2019-02-14T10:10:12.238Z,7.60
2019-02-14T10:12:42.214Z,7.64
2019-02-14T10:15:11.281Z,7.66
2019-02-14T10:17:39.720Z,7.75
2019-02-14T10:20:11.335Z,7.82
2019-02-14T10:22:39.835Z,7.88
2019-02-14T10:25:08.423Z,7.92
2019-02-14T10:27:36.965Z,8.00
2019-02-14T10:30:08.582Z,8.11
2019-02-14T10:32:37.080Z,8.29
2019-02-14T10:35:06.161Z,8.51
2019-02-14T10:37:34.698Z,8.72
2019-02-14T10:40:03.204Z,8.94
2019-02-14T10:42:31.727Z,9.09
2019-02-14T10:45:00.355Z,9.21
2019-02-14T10:47:28.809Z,9.32
2019-02-14T10:49:57.502Z,9.44
2019-02-14T10:52:26.028Z,9.53
2019-02-14T10:54:54.480Z,9.67
2019-02-14T10:57:23.077Z,9.76
2019-02-14T10:59:51.558Z,9.83
2019-02-14T11:02:20.025Z,9.83
2019-02-14T11:04:48.555Z,9.81
2019-02-14T11:07:17.052Z,9.81
2019-02-14T11:09:45.662Z,9.94
2019-02-14T11:12:14.287Z,9.94
2019-02-14T11:14:42.838Z,10.03
2019-02-14T11:17:11.263Z,10.12
2019-02-14T11:19:39.805Z,10.17
2019-02-14T11:22:08.252Z,10.24
2019-02-14T11:24:36.693Z,10.41
2019-02-14T11:27:05.458Z,10.68
2019-02-14T11:29:33.924Z,10.94
2019-02-14T11:32:02.514Z,11.21
2019-02-14T11:34:30.958Z,11.43
2019-02-14T11:36:59.448Z,11.66
2019-02-14T11:39:27.926Z,11.89
2019-02-14T11:41:56.325Z,12.15
2019-02-14T11:44:24.803Z,12.39
2019-02-14T11:46:53.392Z,12.72
2019-02-14T11:49:21.944Z,13.16
2019-02-14T11:51:50.352Z,13.41
2019-02-14T11:54:18.849Z,13.75
2019-02-14T11:56:47.299Z,13.87
2019-02-14T11:59:15.893Z,14.02
2019-02-14T12:01:44.407Z,14.27
2019-02-14T12:04:14.270Z,14.43
2019-02-14T12:06:42.911Z,14.44
2019-02-14T12:09:11.440Z,14.32
2019-02-14T12:11:39.905Z,14.21
2019-02-14T12:14:08.325Z,14.37
2019-02-14T12:16:36.948Z,14.62
2019-02-14T12:19:05.473Z,14.76
2019-02-14T12:21:33.915Z,15.11
2019-02-14T12:24:05.065Z,15.46
2019-02-14T12:26:33.591Z,15.77
2019-02-14T12:29:02.089Z,15.93
2019-02-14T12:31:30.547Z,16.11
2019-02-14T12:33:58.979Z,16.40
2019-02-14T12:36:27.561Z,16.66
2019-02-14T12:38:55.976Z,16.93
2019-02-14T12:41:24.449Z,17.20
2019-02-14T12:43:52.973Z,17.47
2019-02-14T12:46:21.424Z,17.68
2019-02-14T12:48:50.035Z,17.85
2019-02-14T12:51:18.452Z,18.11
2019-02-14T12:53:46.995Z,18.30
2019-02-14T12:56:17.130Z,18.32
2019-02-14T12:58:45.663Z,18.19
2019-02-14T13:01:14.078Z,18.18
2019-02-14T13:03:42.533Z,18.13
2019-02-14T13:06:11.166Z,18.34
2019-02-14T13:08:39.605Z,18.57
2019-02-14T13:11:08.007Z,18.83
2019-02-14T13:13:36.450Z,18.91
2019-02-14T13:16:05.033Z,18.84
2019-02-14T13:18:33.568Z,18.83
2019-02-14T13:21:02.046Z,19.00
2019-02-14T13:23:30.554Z,19.18
2019-02-14T13:25:59.073Z,19.22
2019-02-14T13:28:27.685Z,19.35
2019-02-14T13:30:56.347Z,19.47
2019-02-14T13:33:24.917Z,19.19
2019-02-14T13:35:53.519Z,19.04
2019-02-14T13:38:22.075Z,19.08
2019-02-14T13:40:50.575Z,19.23
2019-02-14T13:43:19.120Z,19.41
2019-02-14T13:45:47.618Z,19.60
2019-02-14T13:48:16.073Z,19.68
2019-02-14T13:50:44.546Z,19.72
2019-02-14T13:53:13.139Z,19.71
2019-02-14T13:55:41.626Z,19.70
2019-02-14T13:58:10.307Z,19.66
2019-02-14T14:00:38.838Z,19.71
2019-02-14T14:03:07.271Z,19.68
2019-02-14T14:05:35.869Z,19.60
2019-02-14T14:08:04.296Z,19.51
2019-02-14T14:10:32.811Z,19.36
2019-02-14T14:13:01.229Z,19.28
2019-02-14T14:15:29.686Z,19.20
2019-02-14T14:17:58.194Z,19.22
2019-02-14T14:20:26.643Z,19.27
2019-02-14T14:22:55.339Z,19.20
2019-02-14T14:25:23.868Z,19.23
2019-02-14T14:27:52.293Z,19.31
2019-02-14T14:30:20.807Z,19.69
2019-02-14T14:32:49.525Z,20.75
2019-02-14T14:35:22.212Z,21.33
2019-02-14T14:37:50.630Z,21.69
2019-02-14T14:40:20.458Z,21.04
2019-02-14T14:42:53.488Z,19.96
2019-02-14T14:45:38.331Z,19.09
2019-02-14T14:48:07.613Z,18.47
2019-02-14T14:50:36.227Z,18.02
2019-02-14T14:53:04.778Z,17.72
2019-02-14T14:55:33.240Z,17.45
2019-02-14T14:58:01.775Z,17.24
2019-02-14T15:00:30.416Z,17.02
2019-02-14T15:02:58.949Z,16.82
2019-02-14T15:05:27.366Z,16.58
2019-02-14T15:07:56.164Z,16.41
2019-02-14T15:10:24.580Z,16.27
2019-02-14T15:12:53.029Z,16.14
2019-02-14T15:15:21.445Z,15.99
2019-02-14T15:17:49.897Z,15.85
2019-02-14T15:20:18.368Z,15.71
2019-02-14T15:22:46.816Z,15.61
2019-02-14T15:25:15.313Z,15.53
2019-02-14T15:27:43.832Z,15.43
2019-02-14T15:30:12.420Z,15.37
2019-02-14T15:32:40.888Z,15.31
2019-02-14T15:35:09.770Z,15.24
2019-02-14T15:37:38.218Z,15.17
2019-02-14T15:40:09.892Z,15.04
2019-02-14T15:42:38.718Z,14.96
2019-02-14T15:45:08.094Z,14.88
2019-02-14T15:47:36.539Z,14.78
2019-02-14T15:50:08.903Z,14.70
2019-02-14T15:52:37.780Z,14.66
2019-02-14T15:55:07.620Z,14.62
2019-02-14T15:57:36.080Z,14.59
2019-02-14T16:00:09.845Z,14.53
2019-02-14T16:02:36.991Z,14.48
2019-02-14T16:05:06.764Z,14.39
2019-02-14T16:07:36.824Z,14.33
2019-02-14T16:10:08.154Z,14.28
2019-02-14T16:12:36.812Z,14.22
2019-02-14T16:15:09.000Z,14.16
2019-02-14T16:17:37.471Z,14.10
2019-02-14T16:20:07.825Z,14.02
2019-02-14T16:22:36.337Z,13.95
2019-02-14T16:25:06.986Z,13.87
2019-02-14T16:27:35.427Z,13.79
2019-02-14T16:30:06.619Z,13.75
2019-02-14T16:32:34.609Z,13.70
2019-02-14T16:35:03.096Z,13.63
2019-02-14T16:37:31.511Z,13.56
2019-02-14T16:39:59.981Z,13.48
2019-02-14T16:42:28.545Z,13.42
2019-02-14T16:44:57.006Z,13.37
2019-02-14T16:47:25.515Z,13.31
2019-02-14T16:49:53.935Z,13.28
2019-02-14T16:52:22.455Z,13.19
2019-02-14T16:54:50.888Z,13.12
2019-02-14T16:57:19.335Z,13.05
2019-02-14T16:59:47.931Z,12.97
2019-02-14T17:02:16.361Z,12.88
2019-02-14T17:04:44.924Z,12.82
2019-02-14T17:07:13.460Z,12.76
2019-02-14T17:09:41.938Z,12.69
2019-02-14T17:12:10.398Z,12.65
2019-02-14T17:14:38.950Z,12.59
2019-02-14T17:17:07.374Z,12.51
2019-02-14T17:19:35.879Z,12.47
2019-02-14T17:22:04.385Z,12.40
2019-02-14T17:24:33.065Z,12.34
2019-02-14T17:27:01.676Z,12.29
2019-02-14T17:29:30.169Z,12.23
2019-02-14T17:31:58.810Z,12.17
2019-02-14T17:34:27.248Z,12.11
2019-02-14T17:36:55.746Z,12.05
2019-02-14T17:39:24.225Z,11.99
2019-02-14T17:41:52.759Z,11.95
2019-02-14T17:44:21.295Z,11.86
2019-02-14T17:46:49.849Z,11.80
2019-02-14T17:49:18.267Z,11.75
2019-02-14T17:51:46.698Z,11.71
2019-02-14T17:54:15.122Z,11.64
2019-02-14T17:56:43.537Z,11.58
2019-02-14T17:59:12.063Z,11.52
2019-02-14T18:01:40.518Z,11.47
2019-02-14T18:04:08.993Z,11.42
2019-02-14T18:06:37.433Z,11.37
2019-02-14T18:09:06.863Z,11.22
2019-02-14T18:11:35.298Z,11.22
2019-02-14T18:14:03.784Z,11.19
2019-02-14T18:16:32.207Z,11.14
2019-02-14T18:19:00.663Z,11.00
2019-02-14T18:21:29.113Z,11.00
2019-02-14T18:23:57.583Z,11.00
2019-02-14T18:26:26.004Z,10.95
2019-02-14T18:28:54.470Z,10.90
2019-02-14T18:31:22.899Z,10.82
2019-02-14T18:33:51.375Z,10.82
2019-02-14T18:36:19.785Z,10.77
2019-02-14T18:38:48.255Z,10.69
2019-02-14T18:41:16.836Z,10.69
2019-02-14T18:43:45.287Z,10.62
2019-02-14T18:46:13.755Z,10.60
2019-02-14T18:48:42.257Z,10.54
2019-02-14T18:51:10.693Z,10.52
2019-02-14T18:53:39.132Z,10.49
2019-02-14T18:56:07.604Z,10.46
2019-02-14T18:58:36.049Z,10.39
2019-02-14T19:01:04.754Z,10.40
2019-02-14T19:03:33.252Z,10.37
2019-02-14T19:06:01.731Z,10.35
2019-02-14T19:08:30.215Z,10.34
2019-02-14T19:10:58.774Z,10.31
2019-02-14T19:13:27.215Z,10.28
2019-02-14T19:15:55.817Z,10.26
2019-02-14T19:18:24.248Z,10.23
2019-02-14T19:20:52.718Z,10.20
2019-02-14T19:23:24.204Z,10.16
2019-02-14T19:25:51.378Z,10.16
2019-02-14T19:28:19.797Z,10.13
2019-02-14T19:30:48.267Z,10.12
2019-02-14T19:33:16.781Z,10.11
2019-02-14T19:35:45.244Z,10.08
2019-02-14T19:38:13.685Z,10.04
2019-02-14T19:40:42.180Z,10.01
2019-02-14T19:43:10.606Z,10.00
2019-02-14T19:45:39.188Z,9.96
2019-02-14T19:48:07.672Z,9.95
2019-02-14T19:50:36.187Z,9.93
2019-02-14T19:53:04.688Z,9.91
2019-02-14T19:55:33.117Z,9.90
2019-02-14T19:58:01.623Z,9.90
2019-02-14T20:00:30.137Z,9.87
2019-02-14T20:02:58.862Z,9.85
2019-02-14T20:05:27.277Z,9.85
2019-02-14T20:07:55.856Z,9.83
2019-02-14T20:10:24.272Z,9.81
2019-02-14T20:12:53.004Z,9.81
2019-02-14T20:15:21.566Z,9.80
2019-02-14T20:17:50.016Z,9.76
2019-02-14T20:20:18.443Z,9.75
2019-02-14T20:22:47.056Z,9.73
2019-02-14T20:25:24.249Z,9.71
2019-02-14T20:27:52.770Z,9.69
2019-02-14T20:30:21.331Z,9.67
2019-02-14T20:32:49.906Z,9.66
2019-02-14T20:35:18.412Z,9.62
2019-02-14T20:37:46.852Z,9.61
2019-02-14T20:40:15.522Z,9.59
2019-02-14T20:42:44.004Z,9.57
2019-02-14T20:45:14.115Z,9.56
2019-02-14T20:47:42.621Z,9.53
2019-02-14T20:50:13.655Z,9.51
2019-02-14T20:52:42.177Z,9.49
2019-02-14T20:55:13.452Z,9.46
2019-02-14T20:57:41.872Z,9.44
2019-02-14T21:00:31.964Z,9.44
2019-02-14T21:03:00.516Z,9.40
2019-02-14T21:05:29.191Z,9.36
2019-02-14T21:07:57.611Z,9.31
2019-02-14T21:10:26.211Z,9.28
2019-02-14T21:12:54.710Z,9.29
2019-02-14T21:15:23.244Z,9.27
2019-02-14T21:17:51.831Z,9.26
2019-02-14T21:20:20.270Z,9.23
2019-02-14T21:22:48.776Z,9.21
2019-02-14T21:25:22.399Z,9.21
2019-02-14T21:27:47.804Z,9.17
2019-02-14T21:30:18.071Z,9.14
2019-02-14T21:32:46.552Z,9.13
2019-02-14T21:35:15.286Z,9.09
2019-02-14T21:37:43.765Z,9.08
2019-02-14T21:40:14.727Z,9.03
2019-02-14T21:42:43.233Z,9.01
2019-02-14T21:45:13.520Z,8.96
2019-02-14T21:47:42.032Z,8.94
2019-02-14T21:50:11.795Z,8.91
2019-02-14T21:52:40.326Z,8.88
2019-02-14T21:55:10.727Z,8.85
2019-02-14T21:57:39.149Z,8.82
2019-02-14T22:00:10.694Z,8.79
2019-02-14T22:02:39.189Z,8.76
2019-02-14T22:05:09.689Z,8.74
2019-02-14T22:07:38.146Z,8.73
2019-02-14T22:10:09.848Z,8.72
2019-02-14T22:12:41.888Z,8.71
2019-02-14T22:15:13.844Z,8.67
2019-02-14T22:17:42.645Z,8.67
2019-02-14T22:20:11.204Z,8.64
2019-02-14T22:22:39.740Z,8.61
2019-02-14T22:25:10.203Z,8.56
2019-02-14T22:27:38.862Z,8.54
2019-02-14T22:30:16.106Z,8.50
2019-02-14T22:32:45.192Z,8.47
2019-02-14T22:35:13.943Z,8.47
2019-02-14T22:37:42.437Z,8.44
2019-02-14T22:40:12.232Z,8.41
2019-02-14T22:42:47.098Z,8.38
2019-02-14T22:45:13.592Z,8.35
2019-02-14T22:47:46.246Z,8.31
2019-02-14T22:50:14.840Z,8.29
2019-02-14T22:52:43.391Z,8.26
2019-02-14T22:55:13.244Z,8.25
2019-02-14T22:57:41.816Z,8.22
2019-02-14T23:00:34.074Z,8.20
2019-02-14T23:03:02.620Z,8.16
2019-02-14T23:05:31.131Z,8.14
2019-02-14T23:07:59.631Z,8.14
2019-02-14T23:10:28.083Z,8.13
2019-02-14T23:12:56.589Z,8.11
2019-02-14T23:15:25.049Z,8.08
2019-02-14T23:17:53.528Z,8.06
2019-02-14T23:20:22.104Z,8.02
2019-02-14T23:22:50.543Z,8.01
2019-02-14T23:25:19.058Z,7.99
2019-02-14T23:27:47.464Z,7.94
2019-02-14T23:30:15.913Z,7.91
2019-02-14T23:32:44.335Z,7.88
2019-02-14T23:35:12.759Z,7.87
2019-02-14T23:37:41.223Z,7.83
2019-02-14T23:40:09.903Z,7.81
2019-02-14T23:42:38.374Z,7.81
2019-02-14T23:45:09.270Z,7.78
2019-02-14T23:47:37.705Z,7.75
2019-02-14T23:50:08.181Z,7.73
2019-02-14T23:52:36.774Z,7.72
2019-02-14T23:55:07.179Z,7.69
2019-02-14T23:57:35.671Z,7.67
